Time;durP1;ratioP1;P1;durP2;ratioP2;P2;SDS_P1;SDS_P2;PMS_P1;PMS_P2;Temp;Humidity;BMP_temperature;BMP_pressure;BME280_temperature;BME280_humidity;BME280_pressure;Samples;Min_cycle;Max_cycle;Signal;HPM_P1;HPM_P2
2022/01/05 00:00:24;;;;;;;3.25;2.85;;;;;;;9.75;67.11;92842.28;1686635;83;20989;-49
2022/01/05 00:02:51;;;;;;;2.77;2.60;;;;;;;9.80;67.09;92854.68;1711123;82;21010;-50
2022/01/05 00:05:17;;;;;;;2.70;2.50;;;;;;;9.84;67.06;92876.44;1713833;82;21108;-50
2022/01/05 00:07:44;;;;;;;3.08;2.87;;;;;;;9.88;66.79;92867.34;1713736;83;20955;-50
2022/01/05 00:10:12;;;;;;;6.12;5.72;;;;;;;9.90;66.67;92861.52;1713770;83;21003;-49
2022/01/05 00:12:40;;;;;;;3.60;3.40;;;;;;;9.93;66.65;92873.50;1712463;82;21161;-50
2022/01/05 00:15:08;;;;;;;2.58;2.47;;;;;;;9.94;66.64;92857.15;1707633;82;20970;-49
2022/01/05 00:17:38;;;;;;;3.12;2.83;;;;;;;9.98;66.37;92871.44;1716049;82;21137;-48
2022/01/05 00:20:09;;;;;;;3.65;3.35;;;;;;;10.03;66.27;92859.76;1700623;83;20968;-49
2022/01/05 00:22:35;;;;;;;2.60;2.50;;;;;;;10.05;66.16;92854.52;1713072;83;21156;-49
2022/01/05 00:25:06;;;;;;;6.83;5.95;;;;;;;10.06;66.08;92863.66;1689521;82;21073;-50
2022/01/05 00:27:32;;;;;;;3.30;3.05;;;;;;;10.11;66.11;92866.30;1714770;82;20987;-50
2022/01/05 00:30:01;;;;;;;3.90;3.40;;;;;;;10.14;65.79;92882.56;1716007;83;21118;-50
2022/01/05 00:32:28;;;;;;;6.35;5.70;;;;;;;10.17;65.86;92889.09;1712642;82;21007;-50
2022/01/05 00:34:55;;;;;;;40.45;16.25;;;;;;;10.17;65.86;92898.06;1703019;83;20940;-48
2022/01/05 00:37:22;;;;;;;6.12;4.80;;;;;;;10.16;65.94;92906.81;1713375;83;20974;-48
2022/01/05 00:39:50;;;;;;;5.65;4.33;;;;;;;10.16;65.47;92906.81;1710502;83;21521;-49
2022/01/05 00:42:17;;;;;;;4.08;3.72;;;;;;;10.12;65.65;92915.88;1647274;85;21166;-49
2022/01/05 00:44:43;;;;;;;2.90;2.70;;;;;;;10.08;65.61;92913.37;1645913;86;21188;-49
2022/01/05 00:47:10;;;;;;;3.58;3.27;;;;;;;10.06;65.60;92921.95;1631513;86;21042;-48
2022/01/05 00:49:37;;;;;;;2.70;2.50;;;;;;;10.10;65.50;92914.23;1716842;82;21106;-49
2022/01/05 00:52:06;;;;;;;2.80;2.60;;;;;;;10.12;65.40;92928.24;1717987;82;20963;-50
2022/01/05 00:54:33;;;;;;;2.60;2.40;;;;;;;10.17;64.94;92930.30;1715662;82;21133;-50
2022/01/05 00:57:00;;;;;;;3.22;2.92;;;;;;;10.25;64.81;92914.86;1716182;82;21047;-48
2022/01/05 00:59:27;;;;;;;2.87;2.67;;;;;;;10.28;64.75;92908.38;1710088;82;21115;-49
2022/01/05 01:01:54;;;;;;;20.10;11.20;;;;;;;10.31;64.69;92916.41;1695257;82;21605;-49
2022/01/05 01:04:22;;;;;;;7.60;5.87;;;;;;;10.31;64.74;92911.55;1697089;82;21055;-49
2022/01/05 01:06:50;;;;;;;2.83;2.52;;;;;;;10.26;64.44;92932.24;1719505;82;21183;-49
2022/01/05 01:09:18;;;;;;;4.08;3.77;;;;;;;10.27;64.37;92911.77;1715426;82;21526;-49
2022/01/05 01:11:45;;;;;;;2.90;2.70;;;;;;;10.30;64.37;92916.28;1698811;82;21093;-49
2022/01/05 01:14:12;;;;;;;2.85;2.65;;;;;;;10.29;64.24;92925.77;1714990;82;21455;-49
2022/01/05 01:16:39;;;;;;;3.83;3.50;;;;;;;10.30;64.31;92920.40;1700183;82;21081;-48
2022/01/05 01:19:06;;;;;;;3.12;2.92;;;;;;;10.31;64.34;92912.28;1721097;82;21861;-49
2022/01/05 01:21:33;;;;;;;4.05;3.67;;;;;;;10.32;64.20;92924.05;1716941;82;21482;-50
2022/01/05 01:24:00;;;;;;;3.72;3.42;;;;;;;10.31;64.19;92916.41;1679713;84;21098;-49
2022/01/05 01:26:29;;;;;;;2.67;2.55;;;;;;;10.32;64.11;92928.17;1712625;83;21057;-49
2022/01/05 01:28:57;;;;;;;2.85;2.65;;;;;;;10.31;63.95;92930.15;1716775;82;21003;-50
2022/01/05 01:31:25;;;;;;;3.37;3.10;;;;;;;10.30;64.00;92940.24;1713373;83;21184;-50
2022/01/05 01:33:51;;;;;;;4.12;3.77;;;;;;;10.32;63.97;92948.78;1714838;82;21229;-49
2022/01/05 01:36:18;;;;;;;3.08;2.70;;;;;;;10.32;63.87;92941.91;1714668;82;21520;-50
2022/01/05 01:38:47;;;;;;;2.87;2.60;;;;;;;10.30;63.83;92938.87;1715783;82;20976;-50
2022/01/05 01:41:13;;;;;;;3.35;3.05;;;;;;;10.25;63.97;92929.36;1712374;82;21439;-50
2022/01/05 01:43:40;;;;;;;3.47;2.98;;;;;;;10.22;64.04;92928.20;1714885;83;21140;-49
2022/01/05 01:46:08;;;;;;;12.13;6.87;;;;;;;10.20;64.17;92932.80;1716511;82;20964;-49
2022/01/05 01:48:35;;;;;;;14.40;7.90;;;;;;;10.22;64.27;92935.84;1709913;82;21093;-49
2022/01/05 01:51:02;;;;;;;12.98;7.92;;;;;;;10.24;64.43;92923.73;1711517;83;21463;-53
2022/01/05 01:53:30;;;;;;;3.90;3.50;;;;;;;10.23;64.30;92925.59;1696123;82;21050;-51
2022/01/05 01:55:58;;;;;;;3.95;3.45;;;;;;;10.23;64.14;92917.34;1714866;82;21122;-49
2022/01/05 01:58:26;;;;;;;17.05;8.20;;;;;;;10.18;64.04;92905.06;1682310;83;21064;-50
2022/01/05 02:00:52;;;;;;;14.60;9.05;;;;;;;10.18;64.19;92909.19;1710032;82;21426;-49
2022/01/05 02:03:21;;;;;;;11.48;6.80;;;;;;;10.19;64.18;92922.31;1662967;83;21101;-49
2022/01/05 02:05:48;;;;;;;5.83;4.10;;;;;;;10.16;64.10;92912.31;1712432;82;21010;-49
2022/01/05 02:08:20;;;;;;;11.70;6.28;;;;;;;10.10;64.07;92920.50;1715253;82;21124;-49
2022/01/05 02:10:49;;;;;;;9.95;6.12;;;;;;;10.01;64.30;92922.64;1713434;82;21564;-49
2022/01/05 02:13:17;;;;;;;30.65;14.93;;;;;;;9.98;64.55;92916.75;1711931;82;20971;-50
2022/01/05 02:15:44;;;;;;;27.15;13.28;;;;;;;9.97;64.61;92927.61;1715272;82;21110;-49
2022/01/05 02:18:58;;;;;;;15.18;9.00;;;;;;;9.90;64.81;92928.03;1714624;83;21544;-49
2022/01/05 02:21:08;;;;;;;22.25;11.18;;;;;;;9.89;64.93;92924.55;1708173;82;21906;-49
2022/01/05 02:23:36;;;;;;;26.05;11.18;;;;;;;9.88;65.08;92922.27;1711485;82;20959;-49
2022/01/05 02:26:05;;;;;;;12.65;7.30;;;;;;;9.89;65.22;92924.55;1716455;82;21019;-49
2022/01/05 02:28:33;;;;;;;7.78;5.70;;;;;;;9.88;65.34;92920.30;1715389;82;21470;-50
2022/01/05 02:31:01;;;;;;;4.72;4.33;;;;;;;9.91;65.37;92918.55;1716704;82;21011;-50
2022/01/05 02:33:28;;;;;;;4.55;4.05;;;;;;;9.93;65.60;92925.08;1695562;83;21923;-49
2022/01/05 02:35:56;;;;;;;4.72;4.33;;;;;;;9.91;65.73;92902.07;1714231;82;21183;-49
2022/01/05 02:38:25;;;;;;;4.75;4.30;;;;;;;9.91;66.14;92915.80;1712537;82;21010;-49
2022/01/05 02:40:52;;;;;;;27.55;13.85;;;;;;;9.95;66.44;92917.73;1712019;82;21006;-49
2022/01/05 02:43:19;;;;;;;11.12;6.30;;;;;;;9.98;66.55;92912.00;1675511;84;21585;-49
2022/01/05 02:45:48;;;;;;;7.17;5.33;;;;;;;9.97;66.75;92913.88;1708351;83;21878;-49
2022/01/05 02:48:15;;;;;;;5.20;4.47;;;;;;;10.00;66.75;92912.90;1714476;83;21595;-49
2022/01/05 02:50:42;;;;;;;6.60;5.47;;;;;;;9.98;66.79;92907.14;1714725;82;20978;-49
2022/01/05 02:53:08;;;;;;;8.78;5.95;;;;;;;9.99;66.91;92907.27;1721287;82;21046;-50
2022/01/05 02:55:36;;;;;;;7.62;5.97;;;;;;;9.99;67.07;92914.14;1714629;82;20964;-50
2022/01/05 02:58:05;;;;;;;6.53;5.10;;;;;;;10.04;67.00;92902.47;1711319;82;21822;-49
2022/01/05 03:00:35;;;;;;;6.42;5.12;;;;;;;10.04;67.02;92910.70;1713875;82;21490;-49
2022/01/05 03:03:02;;;;;;;12.90;8.63;;;;;;;10.02;67.02;92904.95;1713295;82;20974;-50
2022/01/05 03:05:29;;;;;;;8.10;6.20;;;;;;;9.99;67.06;92914.88;1689798;83;21093;-49
2022/01/05 03:07:55;;;;;;;6.80;5.28;;;;;;;10.00;67.07;92908.78;1712023;82;21597;-50
2022/01/05 03:10:22;;;;;;;10.50;7.25;;;;;;;9.99;66.98;92897.66;1710298;82;21824;-48
2022/01/05 03:12:50;;;;;;;7.85;6.08;;;;;;;9.94;67.05;92895.59;1717583;82;21050;-49
2022/01/05 03:15:16;;;;;;;4.85;4.12;;;;;;;9.92;67.16;92895.34;1699943;83;21069;-49
2022/01/05 03:17:44;;;;;;;4.30;3.90;;;;;;;9.92;67.16;92903.58;1685558;83;20975;-49
2022/01/05 03:20:12;;;;;;;4.08;3.77;;;;;;;9.95;67.22;92893.02;1711202;82;21532;-50
2022/01/05 03:22:40;;;;;;;3.72;3.42;;;;;;;10.00;67.22;92899.91;1707145;83;20994;-49
2022/01/05 03:25:15;;;;;;;3.95;3.65;;;;;;;10.04;67.42;92899.72;1715366;82;20974;-49
2022/01/05 03:27:37;;;;;;;8.93;7.22;;;;;;;10.05;67.90;92898.47;1709416;82;21482;-49
2022/01/05 03:30:08;;;;;;;8.65;5.70;;;;;;;10.03;68.08;92892.72;1715243;83;21042;-49
2022/01/05 03:32:46;;;;;;;4.95;4.03;;;;;;;10.00;68.57;92900.54;1712595;82;20967;-50
2022/01/05 03:35:06;;;;;;;25.20;15.45;;;;;;;9.97;68.81;92891.91;1699439;82;21150;-49
2022/01/05 03:37:32;;;;;;;24.07;16.35;;;;;;;9.94;69.09;92898.34;1711863;83;21428;-49
2022/01/05 03:39:59;;;;;;;11.48;9.13;;;;;;;9.95;69.14;92883.41;1679174;83;21071;-49
2022/01/05 03:42:25;;;;;;;8.23;6.00;;;;;;;9.92;69.13;92876.11;1714047;82;20976;-50
2022/01/05 03:44:52;;;;;;;10.75;8.43;;;;;;;9.88;69.22;92885.97;1714149;82;21046;-50
2022/01/05 03:47:21;;;;;;;8.80;6.50;;;;;;;9.89;69.20;92883.95;1712998;82;21136;-49
2022/01/05 03:49:48;;;;;;;13.68;12.23;;;;;;;9.90;69.10;92875.85;1715422;82;21114;-49
2022/01/05 03:52:16;;;;;;;19.00;13.75;;;;;;;9.84;68.97;92882.66;1713626;83;21447;-50
2022/01/05 03:54:43;;;;;;;125.40;65.70;;;;;;;9.79;69.06;92873.03;1707228;82;21439;-50
2022/01/05 03:57:11;;;;;;;223.35;99.90;;;;;;;9.78;69.07;92870.16;1713214;82;20962;-49
2022/01/05 03:59:41;;;;;;;122.17;60.63;;;;;;;9.77;69.16;92864.53;1712107;82;21230;-49
2022/01/05 04:02:07;;;;;;;136.62;68.72;;;;;;;9.80;69.00;92871.80;1711245;82;21092;-49
2022/01/05 04:04:37;;;;;;;42.00;29.27;;;;;;;9.84;68.81;92868.20;1714039;83;20958;-49
2022/01/05 04:07:09;;;;;;;23.62;18.10;;;;;;;9.89;68.57;92875.72;1712473;82;21109;-48
2022/01/05 04:09:35;;;;;;;18.57;11.15;;;;;;;9.95;68.28;92878.64;1713066;83;21058;-49
2022/01/05 04:12:03;;;;;;;25.40;22.67;;;;;;;10.03;68.02;92877.61;1713312;83;21142;-51
2022/01/05 04:14:30;;;;;;;13.03;11.68;;;;;;;10.10;67.77;92881.27;1716722;82;20939;-49
2022/01/05 04:16:56;;;;;;;10.15;9.15;;;;;;;10.14;67.66;92881.83;1714030;82;20974;-50
2022/01/05 04:19:23;;;;;;;10.60;9.60;;;;;;;10.16;67.62;92888.95;1710849;82;21671;-50
2022/01/05 04:21:51;;;;;;;8.68;7.87;;;;;;;10.13;67.76;92892.69;1712234;82;21213;-50
2022/01/05 04:24:18;;;;;;;9.80;6.25;;;;;;;10.14;67.88;92883.94;1718158;82;21078;-49
2022/01/05 04:26:45;;;;;;;7.87;5.35;;;;;;;10.13;68.02;92903.04;1711513;82;21496;-50
2022/01/05 04:29:12;;;;;;;6.62;5.50;;;;;;;10.10;68.39;92896.38;1713523;83;21116;-49
2022/01/05 04:31:39;;;;;;;7.08;4.60;;;;;;;10.09;68.67;92892.13;1712411;82;21426;-49
2022/01/05 04:34:05;;;;;;;4.72;4.33;;;;;;;10.07;68.90;92897.37;1712381;82;20990;-50
2022/01/05 04:36:33;;;;;;;6.22;5.62;;;;;;;10.05;69.25;92905.34;1716370;82;21152;-50
2022/01/05 04:38:59;;;;;;;6.00;5.40;;;;;;;10.03;69.68;92892.72;1714284;82;21102;-52
2022/01/05 04:41:26;;;;;;;5.78;5.22;;;;;;;10.05;69.64;92902.59;1696503;83;21068;-50
2022/01/05 04:43:54;;;;;;;5.97;5.05;;;;;;;10.05;69.63;92895.73;1668997;83;21065;-49
2022/01/05 04:46:21;;;;;;;6.80;5.67;;;;;;;10.08;69.44;92906.50;1710876;83;21003;-49
2022/01/05 04:48:48;;;;;;;8.35;5.70;;;;;;;10.10;69.35;92897.76;1714334;82;21141;-50
2022/01/05 04:51:14;;;;;;;8.40;7.17;;;;;;;10.08;69.30;92895.52;1686006;83;21006;-50
2022/01/05 04:53:41;;;;;;;7.03;6.33;;;;;;;10.06;69.33;92895.86;1690370;83;21034;-49
2022/01/05 04:56:08;;;;;;;5.72;5.22;;;;;;;10.05;69.48;92890.23;1712104;82;21532;-51
2022/01/05 04:58:34;;;;;;;6.30;5.70;;;;;;;10.05;69.43;92887.48;1713405;83;20951;-49
2022/01/05 05:01:01;;;;;;;8.88;6.60;;;;;;;10.09;69.34;92897.02;1717432;82;21952;-49
2022/01/05 05:03:32;;;;;;;9.05;5.72;;;;;;;10.13;69.17;92898.92;1675990;83;21090;-49
2022/01/05 05:05:59;;;;;;;6.42;4.47;;;;;;;10.15;68.94;92891.57;1718207;82;20990;-49
2022/01/05 05:08:28;;;;;;;4.80;4.30;;;;;;;10.14;68.78;92894.19;1693753;83;21094;-49
2022/01/05 05:10:57;;;;;;;6.50;3.77;;;;;;;10.13;68.68;92888.56;1712333;82;21003;-49
2022/01/05 05:13:26;;;;;;;7.83;4.60;;;;;;;10.14;68.59;92885.31;1702049;83;21886;-49
2022/01/05 05:15:53;;;;;;;4.87;4.10;;;;;;;10.17;68.48;92883.59;1697075;82;20958;-50
2022/01/05 05:18:21;;;;;;;6.62;4.95;;;;;;;10.18;68.16;92878.96;1693485;83;21011;-51
2022/01/05 05:20:48;;;;;;;8.18;6.65;;;;;;;10.16;68.15;92868.34;1713134;82;21086;-51
2022/01/05 05:23:17;;;;;;;16.62;14.93;;;;;;;10.14;68.24;92873.58;1715987;82;21002;-49
2022/01/05 05:25:43;;;;;;;76.95;70.05;;;;;;;10.12;68.23;92877.41;1715744;82;21830;-50
2022/01/05 05:28:10;;;;;;;69.95;63.75;;;;;;;10.09;68.32;92885.27;1713109;82;21494;-51
2022/01/05 05:30:36;;;;;;;37.03;33.83;;;;;;;10.06;68.32;92881.52;1661086;84;21494;-51
2022/01/05 05:33:04;;;;;;;25.25;21.20;;;;;;;10.06;68.36;92895.25;1711170;82;21651;-54
2022/01/05 05:35:30;;;;;;;11.10;9.80;;;;;;;10.05;68.35;92891.00;1707415;82;21518;-54
2022/01/05 05:37:57;;;;;;;9.60;8.65;;;;;;;10.06;68.24;92897.23;1712859;82;21100;-53
2022/01/05 05:40:24;;;;;;;7.72;6.67;;;;;;;10.05;68.14;92894.36;1714476;82;21533;-54
2022/01/05 05:42:52;;;;;;;6.37;5.78;;;;;;;10.04;68.14;92891.48;1719086;82;21146;-54
2022/01/05 05:45:19;;;;;;;6.15;5.55;;;;;;;10.02;68.17;92889.84;1715790;82;21117;-51
2022/01/05 05:47:45;;;;;;;11.18;9.58;;;;;;;9.99;67.98;92892.16;1714947;82;21136;-53
2022/01/05 05:50:12;;;;;;;26.23;18.15;;;;;;;10.00;67.82;92901.91;1718532;82;21152;-52
2022/01/05 05:52:39;;;;;;;18.15;14.28;;;;;;;10.04;67.70;92905.21;1715423;82;21093;-51
2022/01/05 05:55:07;;;;;;;20.30;15.68;;;;;;;10.10;67.48;92914.23;1716312;82;21112;-52
2022/01/05 05:57:36;;;;;;;11.90;8.10;;;;;;;10.15;67.18;92905.31;1715540;82;20997;-49
2022/01/05 06:00:05;;;;;;;7.90;6.20;;;;;;;10.15;66.76;92912.18;1714423;82;20948;-50
2022/01/05 06:02:34;;;;;;;16.37;12.53;;;;;;;10.14;66.44;92932.66;1711133;82;21152;-51
2022/01/05 06:05:03;;;;;;;18.65;14.87;;;;;;;10.18;66.21;92927.05;1691808;83;21007;-51
2022/01/05 06:07:32;;;;;;;8.53;7.08;;;;;;;10.23;65.99;92933.83;1713481;82;21062;-51
2022/01/05 06:10:02;;;;;;;15.00;10.80;;;;;;;10.30;65.32;92934.75;1703622;83;21062;-51
2022/01/05 06:12:30;;;;;;;25.90;17.65;;;;;;;10.34;65.03;92924.30;1709073;82;21006;-51
2022/01/05 06:14:58;;;;;;;36.88;30.88;;;;;;;10.34;64.73;92923.67;1716310;82;21794;-50
2022/01/05 06:17:26;;;;;;;16.80;13.88;;;;;;;10.31;64.79;92939.03;1715666;82;21156;-50
2022/01/05 06:19:53;;;;;;;25.85;22.13;;;;;;;10.30;64.75;92939.64;1712079;83;20967;-50
2022/01/05 06:22:20;;;;;;;13.05;9.35;;;;;;;10.30;64.75;92951.23;1713682;82;21023;-49
2022/01/05 06:24:46;;;;;;;9.88;8.00;;;;;;;10.30;64.63;92949.86;1710126;82;21447;-51
2022/01/05 06:27:15;;;;;;;26.97;21.07;;;;;;;10.27;64.79;92957.71;1710421;82;22330;-49
2022/01/05 06:29:42;;;;;;;16.73;10.90;;;;;;;10.26;64.85;92952.09;1710497;82;21478;-49
2022/01/05 06:32:11;;;;;;;64.22;32.28;;;;;;;10.25;64.84;92953.33;1705685;83;21078;-53
2022/01/05 06:34:38;;;;;;;52.40;25.97;;;;;;;10.25;64.84;92952.72;1705023;83;21176;-51
2022/01/05 06:37:05;;;;;;;45.20;26.75;;;;;;;10.28;64.81;92939.98;1709464;82;20950;-51
2022/01/05 06:39:33;;;;;;;53.08;29.52;;;;;;;10.27;64.84;92941.99;1689586;83;21593;-50
2022/01/05 06:42:00;;;;;;;77.17;45.83;;;;;;;10.26;64.80;92945.22;1687469;82;21014;-53
2022/01/05 06:44:26;;;;;;;82.50;53.92;;;;;;;10.23;64.85;92947.58;1707813;82;21062;-51
2022/01/05 06:46:53;;;;;;;29.98;18.57;;;;;;;10.18;65.08;92940.78;1658858;85;21513;-50
2022/01/05 06:49:21;;;;;;;28.90;18.15;;;;;;;10.17;65.13;92950.91;1671116;83;21293;-50
2022/01/05 06:51:51;;;;;;;30.02;19.05;;;;;;;10.15;65.12;92942.40;1697476;82;21197;-52
2022/01/05 06:54:18;;;;;;;52.73;29.40;;;;;;;10.13;65.23;92941.50;1691784;82;21057;-52
2022/01/05 06:56:46;;;;;;;25.90;16.85;;;;;;;10.13;65.29;92931.89;1691014;83;21034;-49
2022/01/05 06:59:14;;;;;;;22.10;15.78;;;;;;;10.14;65.10;92932.02;1638751;83;21486;-50
2022/01/05 07:01:41;;;;;;;15.90;14.23;;;;;;;10.14;65.17;92934.03;1703740;82;20994;-51
2022/01/05 07:04:07;;;;;;;8.23;7.50;;;;;;;10.16;65.18;92929.53;1682503;83;21183;-49
2022/01/05 07:06:37;;;;;;;15.10;13.60;;;;;;;10.14;65.01;92928.53;1668951;84;21015;-53
2022/01/05 07:09:06;;;;;;;26.30;19.02;;;;;;;10.17;65.12;92931.03;1607838;87;20982;-51
2022/01/05 07:11:33;;;;;;;20.60;13.13;;;;;;;10.19;65.08;92929.92;1632433;87;21101;-53
2022/01/05 07:14:02;;;;;;;6.55;5.95;;;;;;;10.22;65.06;92921.34;1635120;87;21142;-48
2022/01/05 07:16:30;;;;;;;5.28;4.87;;;;;;;10.23;65.05;92913.98;1654088;85;21511;-51
2022/01/05 07:19:01;;;;;;;6.65;5.97;;;;;;;10.29;64.99;92925.00;1709238;82;20991;-53
2022/01/05 07:21:29;;;;;;;9.50;7.85;;;;;;;10.36;64.74;92922.55;1684457;83;21742;-55
2022/01/05 07:23:58;;;;;;;6.92;6.08;;;;;;;10.44;64.62;92932.48;1696023;83;21126;-52
2022/01/05 07:26:24;;;;;;;4.70;4.30;;;;;;;10.48;64.24;92931.62;1671402;84;21057;-51
2022/01/05 07:28:53;;;;;;;8.18;7.37;;;;;;;10.54;63.99;92926.94;1649118;83;21224;-52
2022/01/05 07:31:21;;;;;;;10.10;7.15;;;;;;;10.55;63.99;92927.06;1648457;83;21056;-50
2022/01/05 07:33:49;;;;;;;22.13;15.05;;;;;;;10.55;63.84;92916.07;1679329;83;21018;-52
2022/01/05 07:36:16;;;;;;;40.88;26.95;;;;;;;10.56;63.71;92921.06;1675820;83;21184;-52
2022/01/05 07:38:43;;;;;;;34.98;23.83;;;;;;;10.55;63.79;92928.44;1725747;82;21561;-50
2022/01/05 07:41:10;;;;;;;27.37;17.40;;;;;;;10.54;63.91;92936.56;1686096;84;21121;-51
2022/01/05 07:43:37;;;;;;;79.60;60.48;;;;;;;10.53;63.80;92928.92;1689165;81;21073;-51
2022/01/05 07:46:03;;;;;;;18.90;12.45;;;;;;;10.57;63.79;92942.45;1706961;81;20975;-52
2022/01/05 07:48:30;;;;;;;38.83;24.43;;;;;;;10.61;63.75;92938.84;1696510;84;21221;-51
2022/01/05 07:50:58;;;;;;;56.28;34.83;;;;;;;10.63;63.78;92943.23;1697219;83;21052;-51
2022/01/05 07:53:25;;;;;;;44.48;26.37;;;;;;;10.70;63.90;92951.04;1640129;83;21156;-50
2022/01/05 07:55:52;;;;;;;27.30;20.08;;;;;;;10.75;63.93;92941.42;1611904;86;21094;-59
2022/01/05 07:58:21;;;;;;;10.85;8.93;;;;;;;10.79;64.01;92941.33;1691671;81;21170;-52
2022/01/05 08:00:50;;;;;;;7.60;6.58;;;;;;;10.81;64.09;92938.84;1707809;82;21107;-49
2022/01/05 08:03:16;;;;;;;10.35;9.23;;;;;;;10.85;64.17;92942.13;1707883;82;21089;-52
2022/01/05 08:05:50;;;;;;;15.43;9.40;;;;;;;10.90;64.34;92939.26;1699144;81;21343;-51
2022/01/05 08:08:21;;;;;;;20.10;11.45;;;;;;;10.92;64.39;92943.64;1674601;83;21105;-51
2022/01/05 08:10:53;;;;;;;13.03;8.23;;;;;;;10.95;64.42;92931.68;1679467;82;21501;-50
2022/01/05 08:13:20;;;;;;;15.90;10.98;;;;;;;11.00;64.40;92934.44;1695946;82;21115;-52
2022/01/05 08:15:47;;;;;;;11.90;8.28;;;;;;;11.04;64.14;92929.47;1683282;83;21532;-53
2022/01/05 08:18:14;;;;;;;16.73;11.60;;;;;;;11.12;63.70;92929.73;1678214;83;22292;-52
2022/01/05 08:20:41;;;;;;;11.63;8.40;;;;;;;11.23;63.47;92921.53;1705549;82;22007;-53
2022/01/05 08:23:08;;;;;;;7.87;6.17;;;;;;;11.30;62.87;92908.05;1673182;82;21081;-52
2022/01/05 08:25:36;;;;;;;11.15;8.15;;;;;;;11.41;62.66;92905.95;1689626;82;21513;-52
2022/01/05 08:28:03;;;;;;;12.50;7.87;;;;;;;11.44;62.70;92905.72;1692534;82;21478;-53
2022/01/05 08:30:34;;;;;;;8.53;6.70;;;;;;;11.53;62.42;92913.00;1695012;82;21138;-51
2022/01/05 08:33:01;;;;;;;10.30;6.45;;;;;;;11.62;61.95;92910.80;1666991;84;21683;-50
2022/01/05 08:35:30;;;;;;;9.10;6.42;;;;;;;11.68;61.39;92910.81;1697182;83;20973;-50
2022/01/05 08:37:57;;;;;;;15.83;8.95;;;;;;;11.71;61.04;92906.42;1697820;82;21082;-52
2022/01/05 08:40:24;;;;;;;12.88;9.40;;;;;;;11.70;61.23;92909.69;1698197;82;21077;-52
2022/01/05 08:42:55;;;;;;;16.87;12.85;;;;;;;11.72;61.12;92916.83;1692561;82;21109;-51
2022/01/05 08:45:23;;;;;;;23.40;16.33;;;;;;;11.73;61.09;92910.80;1699952;81;21163;-51
2022/01/05 08:47:51;;;;;;;15.20;11.22;;;;;;;11.71;61.34;92904.30;1691234;82;20986;-54
2022/01/05 08:50:22;;;;;;;17.60;12.80;;;;;;;11.77;61.22;92911.33;1698897;82;21054;-52
2022/01/05 08:52:54;;;;;;;7.58;6.72;;;;;;;11.93;60.91;92909.20;1699362;82;21113;-50
2022/01/05 08:55:25;;;;;;;8.90;7.92;;;;;;;12.10;60.03;92916.85;1702035;81;21090;-51
2022/01/05 08:57:52;;;;;;;3.60;3.30;;;;;;;12.22;59.71;92919.75;1704826;82;21033;-51
2022/01/05 09:00:19;;;;;;;5.00;4.50;;;;;;;12.35;59.30;92885.53;1699128;82;20977;-52
2022/01/05 09:02:49;;;;;;;9.85;7.40;;;;;;;12.50;59.18;92901.19;1692233;83;21013;-56
2022/01/05 09:05:15;;;;;;;7.20;5.85;;;;;;;12.74;59.03;92894.50;1694858;81;21145;-52
2022/01/05 09:07:43;;;;;;;8.18;6.15;;;;;;;13.10;58.47;92898.94;1693790;81;21170;-55
2022/01/05 09:10:10;;;;;;;7.22;5.78;;;;;;;13.24;57.62;92880.67;1696170;82;22360;-57
2022/01/05 09:12:38;;;;;;;9.48;6.55;;;;;;;13.16;57.98;92872.05;1693476;82;21077;-55
2022/01/05 09:15:07;;;;;;;4.10;3.70;;;;;;;13.03;58.18;92864.33;1697802;81;21001;-54
2022/01/05 09:17:34;;;;;;;2.62;2.42;;;;;;;12.99;58.08;92879.64;1703908;82;21011;-52
2022/01/05 09:20:04;;;;;;;8.05;6.00;;;;;;;13.03;57.58;92860.19;1675069;83;21714;-55
2022/01/05 09:22:38;;;;;;;10.10;7.60;;;;;;;13.17;57.97;92864.65;1681630;82;21132;-52
2022/01/05 09:25:07;;;;;;;14.07;9.23;;;;;;;13.35;57.54;92857.77;1699196;82;21133;-55
2022/01/05 09:27:34;;;;;;;8.80;6.60;;;;;;;13.46;57.37;92849.44;1697026;82;21479;-51
2022/01/05 09:30:05;;;;;;;6.97;5.95;;;;;;;13.41;57.31;92855.75;1696201;82;21074;-55
2022/01/05 09:32:36;;;;;;;4.23;3.83;;;;;;;12.75;57.94;92838.79;1695544;81;21184;-53
2022/01/05 09:35:06;;;;;;;4.83;4.30;;;;;;;12.75;57.94;92838.79;1689615;82;22104;-51
2022/01/05 09:37:48;;;;;;;5.62;4.97;;;;;;;12.46;59.10;92826.86;1706742;82;21018;-52
2022/01/05 09:42:52;;;;;;;6.72;4.78;;;;;;;12.08;60.29;92831.16;1700955;82;21117;-55
2022/01/05 09:45:22;;;;;;;10.85;7.35;;;;;;;11.96;60.69;92815.15;1698658;82;21136;-55
2022/01/05 09:48:26;;;;;;;5.15;4.60;;;;;;;11.89;60.76;92815.66;1707467;82;21172;-54
2022/01/05 09:51:02;;;;;;;3.92;3.62;;;;;;;11.85;60.87;92811.01;1690570;82;21639;-55
2022/01/05 09:53:33;;;;;;;3.83;3.47;;;;;;;11.78;60.71;92828.05;1700499;82;21159;-53
2022/01/05 09:56:00;;;;;;;4.72;4.22;;;;;;;11.69;61.08;92819.41;1678917;83;21061;-54
2022/01/05 09:58:30;;;;;;;5.37;4.45;;;;;;;11.63;61.03;92839.93;1679755;82;21178;-53
2022/01/05 10:00:57;;;;;;;5.28;4.75;;;;;;;11.60;61.30;92838.18;1709592;82;21011;-55
2022/01/05 10:03:24;;;;;;;5.10;3.62;;;;;;;11.57;61.46;92828.91;1693500;82;21168;-54
2022/01/05 10:05:51;;;;;;;8.70;6.25;;;;;;;11.53;61.84;92825.62;1719586;82;21145;-57
2022/01/05 10:08:18;;;;;;;6.53;4.87;;;;;;;11.52;61.99;92806.22;1699091;81;21132;-52
2022/01/05 10:10:45;;;;;;;9.83;6.50;;;;;;;11.52;62.12;92806.86;1697436;82;21224;-57
2022/01/05 10:13:15;;;;;;;11.97;6.95;;;;;;;11.49;62.44;92809.98;1677621;82;21139;-53
2022/01/05 10:15:43;;;;;;;6.08;4.40;;;;;;;11.45;62.50;92818.35;1689083;83;21014;-53
2022/01/05 10:18:15;;;;;;;5.12;4.22;;;;;;;11.42;62.56;92813.23;1706543;82;21021;-52
2022/01/05 10:21:01;;;;;;;5.83;4.58;;;;;;;11.42;62.60;92808.34;1698714;82;20966;-55
2022/01/05 10:23:46;;;;;;;5.22;4.53;;;;;;;11.43;62.74;92813.36;1699649;82;21137;-53
2022/01/05 10:26:36;;;;;;;5.92;3.95;;;;;;;11.44;62.79;92813.48;1688757;83;21038;-55
2022/01/05 10:29:15;;;;;;;14.45;8.08;;;;;;;11.45;62.48;92821.87;1693916;83;21021;-56
2022/01/05 10:31:48;;;;;;;10.78;5.70;;;;;;;11.45;62.70;92819.12;1669830;83;21668;-54
2022/01/05 10:34:28;;;;;;;5.85;4.12;;;;;;;11.45;62.71;92819.12;1685964;83;21090;-55
2022/01/05 10:37:00;;;;;;;5.85;4.35;;;;;;;11.46;62.72;92830.87;1676415;83;21209;-54
2022/01/05 10:39:39;;;;;;;11.10;6.83;;;;;;;11.45;62.93;92801.83;1695376;83;21062;-55
2022/01/05 10:42:12;;;;;;;8.35;6.12;;;;;;;11.41;62.86;92819.99;1711703;82;21124;-53
2022/01/05 10:44:41;;;;;;;12.20;6.72;;;;;;;11.41;62.75;92804.85;1695948;82;21062;-54
2022/01/05 10:47:08;;;;;;;6.10;4.60;;;;;;;11.40;62.68;92797.84;1692393;82;21062;-51
2022/01/05 10:49:38;;;;;;;8.45;4.92;;;;;;;11.39;62.72;92814.84;1697985;83;22100;-52
2022/01/05 10:52:28;;;;;;;4.20;3.52;;;;;;;11.40;62.61;92808.86;1687693;83;21143;-54
2022/01/05 10:55:11;;;;;;;6.00;4.80;;;;;;;11.41;62.62;92788.95;1693095;83;21081;-52
2022/01/05 10:57:38;;;;;;;4.75;3.40;;;;;;;11.40;62.96;92808.86;1678126;83;21104;-54
2022/01/05 11:00:08;;;;;;;3.40;3.12;;;;;;;11.38;61.92;92825.09;1701509;82;21069;-54
2022/01/05 11:02:36;;;;;;;5.30;4.75;;;;;;;11.41;62.18;92812.34;1690403;83;21725;-58
2022/01/05 11:05:13;;;;;;;7.67;5.30;;;;;;;11.42;62.43;92806.35;1686715;82;21213;-54
2022/01/05 11:07:42;;;;;;;5.53;4.97;;;;;;;11.42;62.59;92802.22;1655250;84;21097;-53
2022/01/05 11:10:12;;;;;;;6.60;5.97;;;;;;;11.40;62.78;92819.87;1686900;83;21058;-54
2022/01/05 11:12:41;;;;;;;7.20;4.67;;;;;;;11.34;62.94;92824.59;1674741;83;21222;-53
2022/01/05 11:15:32;;;;;;;5.60;5.00;;;;;;;11.31;62.84;92815.96;1673925;84;21801;-52
2022/01/05 11:18:16;;;;;;;8.43;6.40;;;;;;;11.30;63.09;92813.69;1688414;83;21101;-56
2022/01/05 11:22:56;;;;;;;4.60;4.10;;;;;;;11.32;63.59;92811.95;1783618;78;26337;-57
2022/01/05 11:25:23;;;;;;;9.53;8.40;;;;;;;11.28;62.90;92786.69;1749274;80;20952;-58
2022/01/05 11:27:50;;;;;;;7.92;7.12;;;;;;;11.28;63.15;92799.06;1739328;80;21138;-56
2022/01/05 11:30:19;;;;;;;4.60;3.65;;;;;;;11.27;63.30;92797.56;1722793;80;21441;-58
2022/01/05 11:32:45;;;;;;;5.45;4.87;;;;;;;11.26;63.07;92798.81;1732256;80;21202;-55
2022/01/05 11:35:14;;;;;;;4.80;4.25;;;;;;;11.28;63.15;92789.44;1747852;81;21053;-57
2022/01/05 11:37:48;;;;;;;5.10;4.10;;;;;;;11.29;63.16;92793.69;1699483;83;20961;-57
2022/01/05 11:40:16;;;;;;;4.10;3.70;;;;;;;11.28;63.07;92789.44;1682904;83;21273;-57